Time;durP1;ratioP1;P1;durP2;ratioP2;P2;SDS_P1;SDS_P2;PMS_P1;PMS_P2;Temp;Humidity;BMP_temperature;BMP_pressure;BME280_temperature;BME280_humidity;BME280_pressure;Samples;Min_cycle;Max_cycle;Signal;HPM_P1;HPM_P2
2022/11/06 00:01:07;;;;;;;9.98;4.80;;;;;;;3.34;100.00;98885.25;4158776;28;20183;-73
2022/11/06 00:03:08;;;;;;;16.33;7.88;;;;;;;3.38;100.00;98883.47;4158984;28;20037;-73
2022/11/06 00:07:27;;;;;;;11.77;6.35;;;;;;;3.33;100.00;98870.75;4158924;28;20052;-73
2022/11/06 00:09:28;;;;;;;11.68;6.35;;;;;;;3.27;100.00;98872.03;4156985;28;20029;-72
2022/11/06 00:11:29;;;;;;;9.45;6.03;;;;;;;3.27;100.00;98866.56;4159206;28;20052;-73
2022/11/06 00:13:29;;;;;;;9.65;5.53;;;;;;;3.23;100.00;98862.88;4155945;28;20156;-73
2022/11/06 00:15:30;;;;;;;9.38;5.78;;;;;;;3.24;100.00;98856.28;4161005;28;20073;-73
2022/11/06 00:17:31;;;;;;;8.98;4.80;;;;;;;3.23;100.00;98854.69;4159381;28;20386;-73
2022/11/06 00:19:31;;;;;;;6.47;4.60;;;;;;;3.14;100.00;98859.31;4156897;28;20037;-73
2022/11/06 00:21:33;;;;;;;9.13;4.35;;;;;;;3.18;100.00;98852.09;4159490;28;21370;-72
2022/11/06 00:23:33;;;;;;;6.22;4.20;;;;;;;3.15;100.00;98860.94;4157465;28;20396;-72
2022/11/06 00:25:33;;;;;;;4.68;3.33;;;;;;;3.11;100.00;98854.47;4157905;28;20368;-72
2022/11/06 00:27:36;;;;;;;8.90;3.58;;;;;;;3.09;100.00;98854.00;4158713;28;20555;-73
2022/11/06 00:29:36;;;;;;;9.32;3.58;;;;;;;3.08;100.00;98847.72;4159922;28;20032;-72
2022/11/06 00:31:36;;;;;;;5.82;3.63;;;;;;;3.12;100.00;98847.88;4158032;28;20059;-72
2022/11/06 00:33:37;;;;;;;5.40;3.45;;;;;;;3.15;100.00;98844.53;4158746;28;20551;-72
2022/11/06 00:35:39;;;;;;;5.15;2.95;;;;;;;3.17;100.00;98845.00;4160153;28;20057;-73
2022/11/06 00:37:39;;;;;;;9.05;4.18;;;;;;;3.21;100.00;98843.22;4156319;28;20327;-72
2022/11/06 00:39:39;;;;;;;7.68;3.65;;;;;;;3.27;100.00;98843.88;4157241;28;20088;-73
2022/11/06 00:41:39;;;;;;;5.43;3.45;;;;;;;3.32;100.00;98838.28;4158639;28;20762;-73
2022/11/06 00:43:41;;;;;;;6.05;3.90;;;;;;;3.34;100.00;98841.47;4155378;28;20164;-73
2022/11/06 00:45:41;;;;;;;5.60;4.22;;;;;;;3.29;100.00;98836.16;4156599;28;20088;-73
2022/11/06 00:47:41;;;;;;;6.93;4.10;;;;;;;3.19;100.00;98848.22;4161238;28;20037;-72
2022/11/06 00:49:42;;;;;;;6.18;3.55;;;;;;;3.15;100.00;98857.41;4158114;28;20037;-72
2022/11/06 00:51:42;;;;;;;4.63;3.10;;;;;;;3.20;100.00;98844.38;4157821;28;20045;-72
2022/11/06 00:53:44;;;;;;;5.68;3.28;;;;;;;3.24;100.00;98848.06;4157707;28;20049;-72
2022/11/06 00:55:44;;;;;;;5.85;3.83;;;;;;;3.34;100.00;98849.69;4158775;28;20057;-72
2022/11/06 00:57:44;;;;;;;7.32;3.20;;;;;;;3.39;100.00;98838.56;4158028;28;20041;-73
2022/11/06 00:59:44;;;;;;;6.00;3.30;;;;;;;3.48;100.00;98833.94;4159537;28;20048;-72
2022/11/06 01:01:45;;;;;;;5.70;2.80;;;;;;;3.57;100.00;98833.91;4157162;28;20144;-73
2022/11/06 01:03:47;;;;;;;4.68;2.97;;;;;;;3.60;100.00;98819.59;4158428;28;20049;-72
2022/11/06 01:05:47;;;;;;;3.90;2.70;;;;;;;3.64;100.00;98817.78;4158240;28;20073;-72
2022/11/06 01:07:47;;;;;;;5.22;2.60;;;;;;;3.67;100.00;98822.63;4156614;28;20535;-73
2022/11/06 01:09:48;;;;;;;5.20;2.53;;;;;;;3.65;99.43;98817.50;4155125;28;20087;-73
2022/11/06 01:11:51;;;;;;;4.95;3.20;;;;;;;3.69;99.27;98817.63;4157846;28;20084;-72
2022/11/06 01:13:54;;;;;;;5.28;3.17;;;;;;;3.69;99.39;98817.63;4157274;28;20037;-73
2022/11/06 01:15:54;;;;;;;3.80;2.53;;;;;;;3.67;100.00;98807.03;4172385;28;20033;-72
2022/11/06 01:17:54;;;;;;;5.03;3.00;;;;;;;3.67;99.70;98809.75;4157062;28;20382;-72
2022/11/06 01:19:55;;;;;;;4.75;2.63;;;;;;;3.66;99.52;98813.63;4157482;28;20140;-72
2022/11/06 01:21:55;;;;;;;4.03;2.80;;;;;;;3.61;99.93;98804.78;4157225;28;20172;-73
2022/11/06 01:23:59;;;;;;;5.28;2.72;;;;;;;3.60;100.00;98805.91;4155057;28;20041;-73
2022/11/06 01:26:04;;;;;;;3.97;2.53;;;;;;;3.57;99.94;98795.63;4161800;28;20111;-72
2022/11/06 01:28:04;;;;;;;4.50;2.88;;;;;;;3.55;99.50;98804.13;4157921;28;20041;-72
2022/11/06 01:30:05;;;;;;;3.50;2.63;;;;;;;3.54;99.96;98797.06;4156634;28;20048;-73
2022/11/06 01:32:05;;;;;;;3.50;2.72;;;;;;;3.53;100.00;98792.72;4159056;28;20025;-72
2022/11/06 01:34:06;;;;;;;7.22;3.00;;;;;;;3.50;100.00;98796.09;4157629;28;20032;-73
2022/11/06 01:36:09;;;;;;;7.03;2.95;;;;;;;3.51;100.00;98792.25;4158344;28;20275;-73
2022/11/06 01:38:09;;;;;;;6.50;3.22;;;;;;;3.48;100.00;98792.91;4159036;28;20029;-73
2022/11/06 01:40:10;;;;;;;5.40;2.97;;;;;;;3.51;100.00;98796.91;4156244;28;20362;-73
2022/11/06 01:42:18;;;;;;;6.13;2.92;;;;;;;3.48;100.00;98798.38;4172634;28;20319;-72
2022/11/06 01:44:34;;;;;;;3.75;2.53;;;;;;;3.51;100.00;98788.69;4156839;28;20030;-72
2022/11/06 01:46:35;;;;;;;6.32;2.97;;;;;;;3.53;100.00;98789.97;4157562;28;20041;-73
2022/11/06 01:48:38;;;;;;;4.40;2.90;;;;;;;3.53;100.00;98792.72;4156138;28;20080;-73
2022/11/06 01:50:40;;;;;;;;;;;;;;;3.53;99.93;98786.44;4158429;28;20120;-72
2022/11/06 01:52:43;;;;;;;4.10;2.75;;;;;;;3.52;100.00;98787.56;4155853;28;20019;-73
2022/11/06 01:54:48;;;;;;;4.60;2.88;;;;;;;3.49;100.00;98783.56;4155401;28;20504;-72
2022/11/06 01:56:51;;;;;;;7.38;2.90;;;;;;;3.45;100.00;98781.78;4156721;28;20500;-72
2022/11/06 01:58:54;;;;;;;5.68;3.17;;;;;;;3.44;100.00;98785.66;4157249;28;20104;-73
2022/11/06 02:00:54;;;;;;;7.55;3.45;;;;;;;3.42;100.00;98783.25;4157266;28;20139;-72
2022/11/06 02:02:55;;;;;;;3.83;2.58;;;;;;;3.43;100.00;98784.84;4158077;28;20057;-72
2022/11/06 02:05:11;;;;;;;5.32;3.17;;;;;;;3.37;100.00;98776.00;4156279;28;20041;-73
2022/11/06 02:07:11;;;;;;;4.00;3.15;;;;;;;3.39;100.00;98789.34;4155709;28;20060;-72
2022/11/06 02:09:12;;;;;;;5.80;3.13;;;;;;;3.36;100.00;98784.53;4156800;28;20068;-72
2022/11/06 02:11:13;;;;;;;4.70;2.75;;;;;;;3.33;100.00;98790.66;4156622;28;20055;-72
2022/11/06 02:13:38;;;;;;;7.53;3.70;;;;;;;3.27;100.00;98787.25;4157411;28;20389;-72
2022/11/06 02:15:46;;;;;;;4.57;2.92;;;;;;;3.20;99.99;98783.41;4158435;28;20409;-72
2022/11/06 02:17:49;;;;;;;5.47;2.78;;;;;;;3.08;100.00;98781.31;4169347;28;20626;-73
2022/11/06 02:20:04;;;;;;;5.63;3.47;;;;;;;2.97;100.00;98789.00;4158621;28;20033;-73
2022/11/06 02:22:10;;;;;;;4.97;3.13;;;;;;;2.94;100.00;98777.94;4159041;28;20057;-72
2022/11/06 02:24:43;;;;;;;4.93;3.42;;;;;;;2.87;100.00;98777.59;4161763;28;20056;-73
2022/11/06 02:27:22;;;;;;;5.55;3.25;;;;;;;2.85;100.00;98777.91;4162372;28;20049;-72
2022/11/06 02:29:37;;;;;;;7.68;3.50;;;;;;;2.80;100.00;98765.19;4124325;28;20050;-72
2022/11/06 02:31:40;;;;;;;5.05;3.08;;;;;;;2.84;100.00;98761.84;4125307;28;20560;-72
2022/11/06 02:33:49;;;;;;;5.90;3.17;;;;;;;2.93;100.00;98771.66;4130153;28;20721;-72
2022/11/06 02:35:59;;;;;;;5.00;3.50;;;;;;;3.02;100.00;98772.47;4162372;28;21783;-72
2022/11/06 02:38:11;;;;;;;6.72;3.50;;;;;;;3.11;100.00;98767.00;4159130;28;20041;-72
2022/11/06 02:40:14;;;;;;;6.28;3.60;;;;;;;3.17;100.00;98765.72;4159311;28;20046;-72
2022/11/06 02:42:18;;;;;;;5.15;3.47;;;;;;;3.25;100.00;98766.84;4159548;28;20052;-73
2022/11/06 02:44:23;;;;;;;5.50;3.15;;;;;;;3.25;100.00;98770.38;4159185;28;20024;-72
2022/11/06 02:46:30;;;;;;;5.80;3.50;;;;;;;3.32;100.00;98772.63;4158645;28;20049;-73
2022/11/06 02:48:36;;;;;;;6.75;3.58;;;;;;;3.33;100.00;98766.03;4157399;28;20496;-73
2022/11/06 02:50:42;;;;;;;6.80;3.22;;;;;;;3.29;99.95;98770.53;4159726;28;20049;-72
2022/11/06 02:52:50;;;;;;;7.53;3.22;;;;;;;3.25;99.83;98773.13;4161680;28;20055;-72
2022/11/06 02:55:15;;;;;;;5.95;3.63;;;;;;;3.03;98.94;98765.06;4179003;28;20056;-72
2022/11/06 02:57:19;;;;;;;7.97;3.90;;;;;;;2.97;100.00;98760.88;4156719;28;20060;-72
2022/11/06 02:59:25;;;;;;;8.77;4.55;;;;;;;2.81;100.00;98761.38;4157944;28;20053;-72
2022/11/06 03:01:59;;;;;;;6.75;3.95;;;;;;;2.58;99.80;98762.63;4159047;28;20045;-72
2022/11/06 03:04:05;;;;;;;7.57;4.18;;;;;;;2.54;100.00;98776.09;4157283;28;20068;-72
2022/11/06 03:06:13;;;;;;;7.35;3.88;;;;;;;2.46;100.00;98768.69;4160496;28;20053;-72
2022/11/06 03:08:25;;;;;;;5.90;3.65;;;;;;;2.46;100.00;98778.81;4160597;28;20494;-72
2022/11/06 03:10:33;;;;;;;7.07;4.63;;;;;;;2.44;100.00;98762.72;4160043;28;20077;-72
2022/11/06 03:12:49;;;;;;;6.57;4.43;;;;;;;2.36;100.00;98757.25;4156422;28;20458;-73
2022/11/06 03:15:19;;;;;;;8.38;4.15;;;;;;;2.42;100.00;98754.06;4157224;28;20103;-72
2022/11/06 03:17:29;;;;;;;6.38;3.97;;;;;;;2.35;100.00;98763.84;4158860;28;20461;-73
2022/11/06 03:19:41;;;;;;;5.78;4.20;;;;;;;2.33;100.00;98755.97;4158604;28;20394;-72
2022/11/06 03:22:03;;;;;;;8.57;4.20;;;;;;;2.32;100.00;98765.28;4159874;28;20586;-72
2022/11/06 03:24:11;;;;;;;7.43;3.85;;;;;;;2.24;100.00;98755.13;4156840;28;20053;-72
2022/11/06 03:26:17;;;;;;;9.55;4.22;;;;;;;2.17;100.00;98768.44;4159777;28;20041;-73
2022/11/06 03:28:26;;;;;;;5.95;3.83;;;;;;;2.15;100.00;98768.75;4157031;28;20099;-72
2022/11/06 03:30:26;;;;;;;7.55;4.43;;;;;;;2.16;100.00;98764.91;4160016;28;20289;-72
2022/11/06 03:32:38;;;;;;;7.35;3.67;;;;;;;2.09;100.00;98764.56;4155411;28;20271;-73
2022/11/06 03:34:49;;;;;;;8.70;4.15;;;;;;;2.14;100.00;98758.94;4157814;28;20088;-73
2022/11/06 03:36:58;;;;;;;7.35;4.03;;;;;;;2.07;100.00;98755.88;4159173;28;20045;-72
2022/11/06 03:39:04;;;;;;;7.47;4.28;;;;;;;2.02;100.00;98761.47;4157662;28;20500;-72
2022/11/06 03:41:14;;;;;;;6.18;3.83;;;;;;;2.06;100.00;98762.44;4159395;28;20509;-72
2022/11/06 03:43:18;;;;;;;8.25;4.00;;;;;;;2.11;100.00;98767.75;4159960;28;20103;-73
2022/11/06 03:45:22;;;;;;;8.13;3.92;;;;;;;2.15;100.00;98762.47;4157901;28;20123;-72
2022/11/06 03:47:30;;;;;;;8.50;3.75;;;;;;;2.19;100.00;98769.72;4158885;28;20641;-72
2022/11/06 03:49:38;;;;;;;7.32;4.00;;;;;;;2.23;100.00;98759.81;4156665;28;20037;-72
2022/11/06 03:52:05;;;;;;;8.68;3.97;;;;;;;2.19;100.00;98752.53;4155821;28;20069;-72
2022/11/06 03:54:12;;;;;;;5.30;3.80;;;;;;;2.08;100.00;98756.69;4154732;28;20057;-72
2022/11/06 03:56:20;;;;;;;8.48;4.32;;;;;;;1.92;100.00;98764.47;4156730;28;20034;-72
2022/11/06 03:58:24;;;;;;;7.00;4.43;;;;;;;1.88;100.00;98763.50;4156949;28;20167;-72
2022/11/06 04:00:25;;;;;;;9.02;4.30;;;;;;;1.72;100.00;98762.28;4156262;28;20037;-72
2022/11/06 04:02:29;;;;;;;7.80;4.68;;;;;;;1.57;100.00;98763.47;4156260;28;20128;-72
2022/11/06 04:04:37;;;;;;;11.82;6.28;;;;;;;1.43;100.00;98752.66;4161605;28;20091;-72
2022/11/06 04:06:51;;;;;;;8.93;4.97;;;;;;;1.38;100.00;98750.84;4155828;28;20139;-72
2022/11/06 04:14:00;;;;;;;9.95;5.28;;;;;;;1.12;100.00;98758.84;4155333;28;20123;-72
2022/11/06 04:16:01;;;;;;;7.55;5.35;;;;;;;1.19;100.00;98750.25;4157638;28;20382;-72
2022/11/06 04:18:01;;;;;;;11.45;5.20;;;;;;;1.13;100.00;98755.00;4156255;28;20021;-73
2022/11/06 04:20:06;;;;;;;7.90;5.47;;;;;;;1.13;100.00;98760.47;4155462;28;20025;-72
2022/11/06 04:22:30;;;;;;;9.38;5.25;;;;;;;1.21;100.00;98763.56;4157239;28;20224;-72
2022/11/06 04:27:20;;;;;;;7.22;4.50;;;;;;;1.18;100.00;98750.56;4156543;28;20076;-72
2022/11/06 04:29:40;;;;;;;7.72;4.97;;;;;;;1.18;100.00;98740.47;4156740;28;20420;-73
2022/11/06 04:32:28;;;;;;;8.38;4.75;;;;;;;1.28;100.00;98744.84;4156755;28;20909;-72
2022/11/06 04:34:34;;;;;;;8.00;5.18;;;;;;;1.24;100.00;98744.69;4156331;28;20276;-72
2022/11/06 04:36:45;;;;;;;7.60;4.93;;;;;;;1.29;100.00;98733.63;4156070;28;20199;-72
2022/11/06 04:39:38;;;;;;;10.68;5.35;;;;;;;1.23;100.00;98732.16;4156125;28;20361;-72
2022/11/06 04:42:10;;;;;;;9.38;4.97;;;;;;;1.21;100.00;98730.84;4118434;28;20288;-72
2022/11/06 04:44:19;;;;;;;6.32;4.80;;;;;;;1.25;100.00;98732.66;4117650;28;20054;-72
2022/11/06 04:46:26;;;;;;;6.70;4.28;;;;;;;1.28;100.00;98726.56;4132390;28;20049;-72
2022/11/06 04:48:27;;;;;;;7.97;5.30;;;;;;;1.34;100.00;98724.53;4158567;28;20056;-72
2022/11/06 04:50:31;;;;;;;9.52;4.95;;;;;;;1.38;100.00;98725.50;4155283;28;20465;-72
2022/11/06 04:52:33;;;;;;;7.57;4.82;;;;;;;1.36;100.00;98731.28;4153701;28;20041;-72
2022/11/06 04:54:34;;;;;;;9.38;4.47;;;;;;;1.32;100.00;98727.56;4156860;28;20048;-72
2022/11/06 04:56:35;;;;;;;10.30;4.88;;;;;;;1.28;100.00;98726.56;4156191;28;20052;-72
2022/11/06 04:58:37;;;;;;;6.22;4.22;;;;;;;1.28;100.00;98734.75;4155682;28;20033;-72
2022/11/06 05:00:42;;;;;;;9.03;5.10;;;;;;;1.32;100.00;98737.66;4154642;28;20435;-72
2022/11/06 05:02:42;;;;;;;7.93;5.22;;;;;;;1.33;100.00;98731.91;4156118;28;20299;-72
2022/11/06 05:04:44;;;;;;;10.43;4.85;;;;;;;1.31;100.00;98720.50;4155343;28;20053;-72
2022/11/06 05:06:44;;;;;;;7.30;4.45;;;;;;;1.31;100.00;98725.94;4156318;28;20301;-72
2022/11/06 05:08:45;;;;;;;9.90;4.30;;;;;;;1.25;100.00;98719.03;4154754;28;20063;-72
2022/11/06 05:10:46;;;;;;;8.07;4.78;;;;;;;1.26;100.00;98722.56;4155031;28;20037;-72
2022/11/06 05:12:46;;;;;;;8.52;4.32;;;;;;;1.25;100.00;98719.03;4153452;28;20405;-72
2022/11/06 05:14:47;;;;;;;10.15;4.88;;;;;;;1.22;100.00;98721.56;4158497;28;20049;-72
2022/11/06 05:16:47;;;;;;;7.30;4.47;;;;;;;1.15;100.00;98710.28;4155337;28;20057;-72
2022/11/06 05:18:48;;;;;;;9.48;4.18;;;;;;;1.04;100.00;98716.00;4159599;28;20045;-72
2022/11/06 05:22:56;;;;;;;10.23;4.45;;;;;;;0.95;100.00;98708.88;4157834;28;20041;-72
2022/11/06 05:23:09;;;;;;;9.27;4.47;;;;;;;0.97;100.00;98710.16;4157916;28;20046;-72
2022/11/06 05:25:09;;;;;;;12.77;4.80;;;;;;;0.93;100.00;98702.94;4156337;28;20383;-72
2022/11/06 05:27:10;;;;;;;11.70;4.63;;;;;;;0.95;100.00;98706.94;4154042;28;20484;-72
2022/11/06 05:29:11;;;;;;;7.32;4.15;;;;;;;1.02;100.00;98704.59;4155234;28;20083;-72
2022/11/06 05:31:11;;;;;;;6.10;4.18;;;;;;;0.97;100.00;98695.75;4155307;28;20037;-72
2022/11/06 05:33:12;;;;;;;5.97;4.18;;;;;;;0.92;100.00;98704.06;4153369;28;20041;-72
2022/11/06 05:35:12;;;;;;;12.90;4.63;;;;;;;0.79;100.00;98694.81;4155610;28;20068;-72
2022/11/06 05:37:12;;;;;;;8.05;4.35;;;;;;;0.80;100.00;98691.75;4155484;28;20049;-72
2022/11/06 05:39:13;;;;;;;7.78;4.18;;;;;;;0.87;100.00;98699.50;4158005;28;20103;-72
2022/11/06 05:41:13;;;;;;;7.88;4.63;;;;;;;0.87;100.00;98696.00;4153523;28;20136;-72
2022/11/06 05:43:13;;;;;;;6.78;4.35;;;;;;;0.78;100.00;98688.56;4156969;28;20412;-72
2022/11/06 05:45:14;;;;;;;8.93;4.45;;;;;;;0.63;100.00;98691.63;4154823;28;20037;-72
2022/11/06 05:47:14;;;;;;;11.52;4.55;;;;;;;0.50;100.00;98682.41;4156237;28;20049;-72
2022/11/06 05:49:15;;;;;;;14.68;4.82;;;;;;;0.58;100.00;98675.44;4154712;28;20389;-72
2022/11/06 05:51:15;;;;;;;10.70;4.90;;;;;;;0.47;100.00;98677.56;4154655;28;20401;-72
2022/11/06 05:53:15;;;;;;;7.30;4.43;;;;;;;0.32;100.00;98669.72;4153634;28;20049;-72
2022/11/06 05:55:16;;;;;;;7.25;4.72;;;;;;;0.24;100.00;98679.41;4158601;28;20486;-72
2022/11/06 05:57:16;;;;;;;8.15;5.38;;;;;;;0.21;100.00;98674.59;4153655;28;20049;-72
2022/11/06 05:59:16;;;;;;;14.57;8.55;;;;;;;0.16;100.00;98682.06;4153845;28;20063;-72
2022/11/06 06:01:17;;;;;;;17.13;8.30;;;;;;;0.24;100.00;98694.94;4153329;28;20432;-72
2022/11/06 06:03:17;;;;;;;27.02;12.48;;;;;;;0.22;100.00;98680.84;4153711;28;20485;-72
2022/11/06 06:05:18;;;;;;;15.38;7.80;;;;;;;0.23;100.00;98690.59;4160303;28;20072;-72
2022/11/06 06:07:18;;;;;;;15.15;6.50;;;;;;;0.21;100.00;98696.38;4153991;28;20049;-72
2022/11/06 06:09:18;;;;;;;10.77;6.95;;;;;;;0.28;100.00;98687.78;4155943;28;20176;-72
2022/11/06 06:11:19;;;;;;;14.05;6.50;;;;;;;0.26;100.00;98685.38;4154420;28;20052;-72
2022/11/06 06:13:19;;;;;;;10.40;5.90;;;;;;;0.15;100.00;98692.13;4152877;28;20460;-72
2022/11/06 06:15:19;;;;;;;9.25;5.35;;;;;;;0.09;100.00;98695.28;4154853;28;20047;-72
2022/11/06 06:17:20;;;;;;;11.10;4.63;;;;;;;0.04;100.00;98695.38;4157740;28;20046;-72
2022/11/06 06:19:20;;;;;;;11.32;5.20;;;;;;;-0.08;100.00;98687.75;4154091;28;20483;-72
2022/11/06 06:21:21;;;;;;;7.03;4.60;;;;;;;-0.14;100.00;98688.94;4153716;28;20513;-72
2022/11/06 06:23:21;;;;;;;9.25;4.25;;;;;;;-0.17;100.00;98679.47;4154158;28;20041;-72
2022/11/06 06:25:22;;;;;;;16.60;5.38;;;;;;;-0.21;100.00;98680.38;4153947;28;20425;-72
2022/11/06 06:27:24;;;;;;;10.93;5.43;;;;;;;-0.09;100.00;98691.53;4153664;28;20151;-72
2022/11/06 06:29:24;;;;;;;;;;;;;;;-0.04;100.00;98694.16;4154138;28;20609;-72
2022/11/06 06:31:25;;;;;;;7.78;4.40;;;;;;;0.10;100.00;98696.91;4153899;28;20018;-72
2022/11/06 06:33:25;;;;;;;8.43;5.00;;;;;;;0.06;100.00;98701.31;4152540;28;20049;-72
2022/11/06 06:35:25;;;;;;;12.02;5.72;;;;;;;0.13;100.00;98699.00;4154074;28;20049;-72
2022/11/06 06:37:25;;;;;;;8.30;4.38;;;;;;;0.04;100.00;98700.81;4155602;28;20370;-72
2022/11/06 06:39:26;;;;;;;9.52;5.28;;;;;;;0.05;100.00;98699.72;4154895;28;20057;-72
2022/11/06 06:41:26;;;;;;;30.98;5.80;;;;;;;0.14;100.00;98706.84;4157573;28;20457;-72
2022/11/06 06:43:27;;;;;;;11.73;5.57;;;;;;;0.14;100.00;98700.59;4153448;28;20723;-72
2022/11/06 06:45:27;;;;;;;9.68;4.57;;;;;;;0.20;100.00;98711.09;4154136;28;20045;-72
2022/11/06 06:47:27;;;;;;;10.88;5.18;;;;;;;0.24;100.00;98705.81;4153798;28;20362;-72
2022/11/06 06:49:27;;;;;;;8.90;4.95;;;;;;;0.27;100.00;98711.47;4153486;28;20250;-72
2022/11/06 06:51:28;;;;;;;9.52;4.95;;;;;;;0.24;100.00;98720.22;4156319;28;20061;-72
2022/11/06 06:53:28;;;;;;;12.18;4.88;;;;;;;0.16;100.00;98711.97;4152399;28;20606;-72
2022/11/06 06:55:28;;;;;;;17.98;5.38;;;;;;;0.16;100.00;98710.06;4071627;28;20052;-72
2022/11/06 06:57:29;;;;;;;9.98;5.68;;;;;;;0.26;100.00;98711.78;4170139;28;20060;-72
2022/11/06 06:59:29;;;;;;;9.68;5.22;;;;;;;0.40;100.00;98701.66;4153559;28;20833;-72
2022/11/06 07:01:30;;;;;;;9.57;5.32;;;;;;;0.45;100.00;98712.44;4155927;28;20056;-72
2022/11/06 07:03:30;;;;;;;7.40;5.00;;;;;;;0.40;100.00;98704.38;4155733;28;20073;-72
2022/11/06 07:05:31;;;;;;;9.00;5.53;;;;;;;0.32;100.00;98699.66;4157067;28;21355;-72
2022/11/06 07:07:31;;;;;;;11.32;5.60;;;;;;;0.43;100.00;98695.63;4160562;28;20455;-72
2022/11/06 07:09:32;;;;;;;8.60;5.60;;;;;;;0.45;100.00;98685.22;4158733;28;20042;-72
2022/11/06 07:11:32;;;;;;;10.52;5.38;;;;;;;0.59;100.00;98695.28;4157482;28;20508;-72
2022/11/06 07:13:33;;;;;;;11.00;5.75;;;;;;;0.61;100.00;98695.78;4155008;28;20041;-72
2022/11/06 07:15:34;;;;;;;8.02;5.25;;;;;;;0.63;100.00;98690.81;4160280;28;20131;-72
2022/11/06 07:17:34;;;;;;;13.82;5.85;;;;;;;0.65;100.00;98703.00;4159110;28;20414;-72
2022/11/06 07:19:35;;;;;;;11.07;6.05;;;;;;;0.67;100.00;98700.81;4159749;28;20133;-72
2022/11/06 07:21:35;;;;;;;10.32;5.43;;;;;;;0.78;100.00;98701.38;4159334;28;20048;-72
2022/11/06 07:23:36;;;;;;;8.63;4.57;;;;;;;0.81;100.00;98703.47;4156491;28;20095;-72
2022/11/06 07:25:36;;;;;;;10.77;5.43;;;;;;;0.87;100.00;98694.06;4157497;28;20476;-72
2022/11/06 07:27:37;;;;;;;14.13;5.78;;;;;;;0.87;100.00;98690.53;4159199;28;20343;-72
2022/11/06 07:29:37;;;;;;;14.23;7.20;;;;;;;0.94;100.00;98702.63;4158708;28;20057;-72
2022/11/06 07:31:37;;;;;;;9.45;5.75;;;;;;;0.96;100.00;98691.41;4158402;28;20845;-72
2022/11/06 07:33:38;;;;;;;10.23;5.93;;;;;;;1.02;100.00;98690.19;4157795;28;20088;-72
2022/11/06 07:35:38;;;;;;;9.15;5.20;;;;;;;1.05;100.00;98690.34;4157865;28;20041;-72
2022/11/06 07:37:38;;;;;;;9.40;5.45;;;;;;;1.04;100.00;98687.94;4159700;28;20407;-72
2022/11/06 07:39:39;;;;;;;12.38;5.80;;;;;;;1.03;100.00;98686.34;4158003;28;20049;-72
2022/11/06 07:41:39;;;;;;;12.80;5.95;;;;;;;1.03;100.00;98673.50;4157276;28;20050;-72
2022/11/06 07:43:40;;;;;;;18.38;7.53;;;;;;;1.06;100.00;98675.59;4154685;28;20076;-72
2022/11/06 07:45:41;;;;;;;16.00;7.63;;;;;;;1.10;100.00;98673.88;4157396;28;20042;-72
2022/11/06 07:47:41;;;;;;;13.90;7.88;;;;;;;1.14;100.00;98676.78;4156106;28;20044;-72
2022/11/06 07:49:42;;;;;;;17.02;7.55;;;;;;;1.21;100.00;98662.72;4158158;28;20053;-72
2022/11/06 07:51:43;;;;;;;20.85;11.30;;;;;;;1.29;100.00;98672.88;4161860;28;20045;-72
2022/11/06 07:53:43;;;;;;;19.15;10.10;;;;;;;1.31;100.00;98670.63;4155379;28;20045;-72
2022/11/06 07:55:48;;;;;;;17.48;8.48;;;;;;;1.33;100.00;98671.13;4160552;28;20481;-72
2022/11/06 07:57:48;;;;;;;18.75;7.63;;;;;;;1.36;100.00;98665.84;4162429;28;20446;-72
2022/11/06 07:59:49;;;;;;;18.00;7.13;;;;;;;1.44;100.00;98672.47;4159572;28;20674;-72
2022/11/06 08:01:49;;;;;;;17.90;7.30;;;;;;;1.52;100.00;98679.09;4158291;28;20160;-72
2022/11/06 08:03:49;;;;;;;29.60;16.35;;;;;;;1.54;100.00;98674.91;4159715;28;20144;-72
2022/11/06 08:05:50;;;;;;;33.88;16.08;;;;;;;1.59;100.00;98676.72;4158132;28;20042;-72
2022/11/06 08:07:55;;;;;;;22.25;10.65;;;;;;;1.65;100.00;98672.72;4157572;28;20041;-72
2022/11/06 08:09:55;;;;;;;16.88;7.88;;;;;;;1.68;100.00;98689.25;4157362;28;20401;-72
2022/11/06 08:11:55;;;;;;;12.48;8.18;;;;;;;1.71;100.00;98676.91;4161500;28;20037;-72
2022/11/06 08:13:59;;;;;;;15.95;7.95;;;;;;;1.79;100.00;98672.63;4154603;28;20044;-72
2022/11/06 08:16:07;;;;;;;15.70;7.55;;;;;;;1.83;100.00;98663.50;4156633;28;20123;-72
2022/11/06 08:18:09;;;;;;;16.52;7.40;;;;;;;1.92;100.00;98658.06;4159506;28;20037;-72
2022/11/06 08:20:10;;;;;;;15.25;9.07;;;;;;;2.07;100.00;98670.44;4157836;28;20537;-72
2022/11/06 08:22:10;;;;;;;10.23;7.18;;;;;;;2.19;100.00;98662.47;4156740;28;20060;-72
2022/11/06 08:24:10;;;;;;;14.82;6.90;;;;;;;2.31;100.00;98670.00;4157454;28;20419;-72
2022/11/06 08:26:11;;;;;;;14.38;8.43;;;;;;;2.34;100.00;98653.00;4156724;28;20025;-72
2022/11/06 08:28:11;;;;;;;12.25;7.78;;;;;;;2.46;100.00;98658.63;4154807;28;20636;-72
2022/11/06 08:30:12;;;;;;;14.27;7.25;;;;;;;2.54;100.00;98661.38;4156333;28;20071;-72
2022/11/06 08:32:12;;;;;;;13.70;7.90;;;;;;;2.64;100.00;98652.03;4156390;28;20030;-72
2022/11/06 08:34:12;;;;;;;17.25;8.32;;;;;;;2.79;100.00;98657.03;4154904;28;20524;-72
2022/11/06 08:36:13;;;;;;;11.82;7.03;;;;;;;2.97;100.00;98646.88;4156110;28;20029;-72
2022/11/06 08:38:14;;;;;;;11.30;6.50;;;;;;;3.12;100.00;98648.31;4156239;28;20025;-72
2022/11/06 08:40:15;;;;;;;15.45;7.10;;;;;;;3.31;100.00;98648.75;4156607;28;20461;-72
2022/11/06 08:42:15;;;;;;;13.38;6.55;;;;;;;3.40;100.00;98648.75;4154116;28;20033;-72
2022/11/06 08:44:15;;;;;;;9.93;5.40;;;;;;;3.54;100.00;98649.31;4157977;28;20036;-72
2022/11/06 08:46:16;;;;;;;13.40;5.68;;;;;;;3.70;100.00;98646.84;4155081;28;20419;-72
2022/11/06 08:48:16;;;;;;;15.75;6.22;;;;;;;3.80;100.00;98645.66;4155805;28;20033;-72
2022/11/06 08:50:16;;;;;;;9.63;6.28;;;;;;;3.84;100.00;98644.69;4157549;28;20057;-72
2022/11/06 08:52:17;;;;;;;8.82;4.00;;;;;;;4.04;100.00;98632.19;4155886;28;20040;-72
2022/11/06 08:54:17;;;;;;;6.07;3.88;;;;;;;4.24;100.00;98633.34;4172298;28;20020;-72
2022/11/06 08:56:18;;;;;;;10.18;3.95;;;;;;;4.35;100.00;98641.97;4158121;28;20082;-72
2022/11/06 08:58:18;;;;;;;9.57;5.38;;;;;;;4.43;100.00;98630.97;4156232;28;20159;-72
2022/11/06 09:00:19;;;;;;;7.75;4.50;;;;;;;4.58;100.00;98634.25;4160245;28;20496;-72
2022/11/06 09:02:19;;;;;;;8.15;5.25;;;;;;;4.65;100.00;98631.78;4156908;28;20028;-72
2022/11/06 09:04:19;;;;;;;7.10;4.47;;;;;;;4.71;100.00;98630.41;4160994;28;20053;-72
2022/11/06 09:06:20;;;;;;;7.20;3.25;;;;;;;4.85;100.00;98632.88;4160735;28;20528;-72
2022/11/06 09:08:20;;;;;;;6.15;4.88;;;;;;;4.95;100.00;98618.75;4158671;28;20384;-72
2022/11/06 09:10:20;;;;;;;10.07;5.20;;;;;;;4.99;100.00;98620.50;4159797;28;20409;-72
2022/11/06 09:12:21;;;;;;;4.45;3.10;;;;;;;5.02;100.00;98608.84;4158385;28;20200;-72
2022/11/06 09:14:21;;;;;;;4.32;3.03;;;;;;;5.01;99.34;98603.69;4156100;28;20056;-72
2022/11/06 09:16:21;;;;;;;5.20;3.10;;;;;;;5.02;99.92;98614.31;4157964;28;20493;-72
2022/11/06 09:18:21;;;;;;;5.47;3.10;;;;;;;5.03;99.84;98615.91;4157542;28;20045;-72
2022/11/06 09:20:23;;;;;;;4.38;2.95;;;;;;;5.02;99.97;98606.09;4156603;28;20172;-72
2022/11/06 09:22:24;;;;;;;4.05;2.70;;;;;;;5.08;100.00;98612.97;4161577;28;20408;-72
2022/11/06 09:24:24;;;;;;;4.60;2.85;;;;;;;5.15;100.00;98615.16;4155577;28;20041;-72
2022/11/06 09:26:24;;;;;;;6.55;3.00;;;;;;;5.23;98.90;98610.72;4158286;28;20049;-72
2022/11/06 09:28:24;;;;;;;6.38;3.03;;;;;;;5.24;97.39;98604.91;4162592;28;20601;-72
2022/11/06 09:30:30;;;;;;;5.93;3.28;;;;;;;5.35;94.64;98610.75;4156374;28;20051;-72
2022/11/06 09:32:30;;;;;;;3.78;2.70;;;;;;;5.35;95.77;98611.53;4158902;28;20049;-72
2022/11/06 09:34:31;;;;;;;3.72;2.75;;;;;;;5.47;95.85;98609.97;4158832;28;20091;-72
2022/11/06 09:36:31;;;;;;;4.18;2.83;;;;;;;5.51;96.50;98608.13;4156677;28;20423;-72
2022/11/06 09:38:32;;;;;;;5.88;3.28;;;;;;;5.60;95.29;98615.13;4158902;28;20052;-72
2022/11/06 09:40:37;;;;;;;6.22;4.55;;;;;;;5.64;95.21;98613.31;4157656;28;20041;-72
2022/11/06 09:43:03;;;;;;;4.93;3.33;;;;;;;5.74;94.80;98600.28;4157170;28;20154;-72
2022/11/06 09:45:15;;;;;;;4.65;2.88;;;;;;;5.77;94.15;98605.06;4156697;28;20052;-72
2022/11/06 09:47:22;;;;;;;3.47;2.42;;;;;;;5.77;94.55;98605.06;4159060;28;20083;-72
2022/11/06 09:49:39;;;;;;;5.22;3.00;;;;;;;5.79;95.30;98600.03;4155914;28;20077;-72
2022/11/06 09:52:09;;;;;;;2.80;2.10;;;;;;;5.80;94.88;98598.91;4155951;28;20049;-72